sensor_id;sensor_type;location;lat;lon;timestamp;temperature;humidity
16517;DHT22;8371;52.272;9.746;2022-10-20T00:01:29;7.90;70.10
16517;DHT22;8371;52.272;9.746;2022-10-20T00:03:55;7.80;69.90
16517;DHT22;8371;52.272;9.746;2022-10-20T00:06:23;7.80;70.00
16517;DHT22;8371;52.272;9.746;2022-10-20T00:08:50;7.80;70.10
16517;DHT22;8371;52.272;9.746;2022-10-20T00:11:18;7.80;70.30
16517;DHT22;8371;52.272;9.746;2022-10-20T00:13:46;7.70;70.20
16517;DHT22;8371;52.272;9.746;2022-10-20T00:16:13;7.70;70.90
16517;DHT22;8371;52.272;9.746;2022-10-20T00:18:39;7.70;70.30
16517;DHT22;8371;52.272;9.746;2022-10-20T00:21:12;7.60;70.30
16517;DHT22;8371;52.272;9.746;2022-10-20T00:23:37;7.60;70.20
16517;DHT22;8371;52.272;9.746;2022-10-20T00:26:15;7.50;70.20
16517;DHT22;8371;52.272;9.746;2022-10-20T00:28:41;7.50;70.40
16517;DHT22;8371;52.272;9.746;2022-10-20T00:31:08;7.50;70.40
16517;DHT22;8371;52.272;9.746;2022-10-20T00:33:34;7.50;70.50
16517;DHT22;8371;52.272;9.746;2022-10-20T00:36:03;7.40;70.60
16517;DHT22;8371;52.272;9.746;2022-10-20T00:38:30;7.40;71.30
16517;DHT22;8371;52.272;9.746;2022-10-20T00:40:56;7.40;70.80
16517;DHT22;8371;52.272;9.746;2022-10-20T00:43:39;7.40;70.70
16517;DHT22;8371;52.272;9.746;2022-10-20T00:45:55;7.40;70.80
16517;DHT22;8371;52.272;9.746;2022-10-20T00:48:24;7.40;70.70
16517;DHT22;8371;52.272;9.746;2022-10-20T00:50:53;7.30;70.80
16517;DHT22;8371;52.272;9.746;2022-10-20T00:53:25;7.30;70.40
16517;DHT22;8371;52.272;9.746;2022-10-20T00:55:54;7.40;71.00
16517;DHT22;8371;52.272;9.746;2022-10-20T00:58:20;7.30;71.80
16517;DHT22;8371;52.272;9.746;2022-10-20T01:00:47;7.30;71.10
16517;DHT22;8371;52.272;9.746;2022-10-20T01:03:23;7.30;71.10
16517;DHT22;8371;52.272;9.746;2022-10-20T01:05:47;7.30;71.90
16517;DHT22;8371;52.272;9.746;2022-10-20T01:08:13;7.30;71.00
16517;DHT22;8371;52.272;9.746;2022-10-20T01:10:43;7.20;71.00
16517;DHT22;8371;52.272;9.746;2022-10-20T01:13:25;7.20;71.10
16517;DHT22;8371;52.272;9.746;2022-10-20T01:16:02;7.20;71.10
16517;DHT22;8371;52.272;9.746;2022-10-20T01:18:35;7.10;71.20
16517;DHT22;8371;52.272;9.746;2022-10-20T01:29:26;7.10;71.40
16517;DHT22;8371;52.272;9.746;2022-10-20T01:34:35;7.10;71.50
16517;DHT22;8371;52.272;9.746;2022-10-20T01:37:04;7.00;71.50
16517;DHT22;8371;52.272;9.746;2022-10-20T01:39:34;7.00;71.40
16517;DHT22;8371;52.272;9.746;2022-10-20T01:42:02;7.00;71.40
16517;DHT22;8371;52.272;9.746;2022-10-20T01:44:29;7.00;71.50
16517;DHT22;8371;52.272;9.746;2022-10-20T01:46:56;7.00;71.40
16517;DHT22;8371;52.272;9.746;2022-10-20T01:49:23;7.00;71.60
16517;DHT22;8371;52.272;9.746;2022-10-20T01:51:50;7.00;71.60
16517;DHT22;8371;52.272;9.746;2022-10-20T01:54:23;7.00;71.70
16517;DHT22;8371;52.272;9.746;2022-10-20T02:02:27;6.90;71.70
16517;DHT22;8371;52.272;9.746;2022-10-20T02:07:29;6.90;71.60
16517;DHT22;8371;52.272;9.746;2022-10-20T02:09:54;6.90;71.70
16517;DHT22;8371;52.272;9.746;2022-10-20T02:12:29;6.80;71.70
16517;DHT22;8371;52.272;9.746;2022-10-20T02:14:57;6.80;71.70
16517;DHT22;8371;52.272;9.746;2022-10-20T02:17:22;6.80;71.90
16517;DHT22;8371;52.272;9.746;2022-10-20T02:19:50;6.80;71.90
16517;DHT22;8371;52.272;9.746;2022-10-20T02:22:18;6.80;72.00
16517;DHT22;8371;52.272;9.746;2022-10-20T02:24:45;6.80;71.90
16517;DHT22;8371;52.272;9.746;2022-10-20T02:27:17;6.70;72.00
16517;DHT22;8371;52.272;9.746;2022-10-20T02:29:52;6.70;71.90
16517;DHT22;8371;52.272;9.746;2022-10-20T02:32:18;6.70;72.00
16517;DHT22;8371;52.272;9.746;2022-10-20T02:34:44;6.70;72.10
16517;DHT22;8371;52.272;9.746;2022-10-20T02:37:10;6.70;72.10
16517;DHT22;8371;52.272;9.746;2022-10-20T02:39:35;6.70;72.20
16517;DHT22;8371;52.272;9.746;2022-10-20T02:42:01;6.70;72.10
16517;DHT22;8371;52.272;9.746;2022-10-20T02:44:27;6.60;72.00
16517;DHT22;8371;52.272;9.746;2022-10-20T02:46:52;6.60;72.10
16517;DHT22;8371;52.272;9.746;2022-10-20T02:49:18;6.60;72.00
16517;DHT22;8371;52.272;9.746;2022-10-20T02:51:45;6.60;72.10
16517;DHT22;8371;52.272;9.746;2022-10-20T02:54:11;6.50;71.90
16517;DHT22;8371;52.272;9.746;2022-10-20T02:56:37;6.50;71.90
16517;DHT22;8371;52.272;9.746;2022-10-20T02:59:03;6.50;71.90
16517;DHT22;8371;52.272;9.746;2022-10-20T03:01:28;6.40;71.90
16517;DHT22;8371;52.272;9.746;2022-10-20T03:03:54;6.40;71.80
16517;DHT22;8371;52.272;9.746;2022-10-20T03:06:21;6.40;72.00
16517;DHT22;8371;52.272;9.746;2022-10-20T03:08:47;6.30;71.90
16517;DHT22;8371;52.272;9.746;2022-10-20T03:11:13;6.30;71.90
16517;DHT22;8371;52.272;9.746;2022-10-20T03:13:38;6.20;72.00
16517;DHT22;8371;52.272;9.746;2022-10-20T03:16:04;6.20;71.90
16517;DHT22;8371;52.272;9.746;2022-10-20T03:18:30;6.10;71.80
16517;DHT22;8371;52.272;9.746;2022-10-20T03:20:56;6.10;72.00
16517;DHT22;8371;52.272;9.746;2022-10-20T03:23:22;6.10;72.10
16517;DHT22;8371;52.272;9.746;2022-10-20T03:25:47;6.10;72.30
16517;DHT22;8371;52.272;9.746;2022-10-20T03:28:13;6.00;72.40
16517;DHT22;8371;52.272;9.746;2022-10-20T03:30:39;6.00;72.60
16517;DHT22;8371;52.272;9.746;2022-10-20T03:33:04;6.10;72.90
16517;DHT22;8371;52.272;9.746;2022-10-20T03:35:30;6.10;73.10
16517;DHT22;8371;52.272;9.746;2022-10-20T03:37:56;6.10;73.90
16517;DHT22;8371;52.272;9.746;2022-10-20T03:40:21;6.10;73.20
16517;DHT22;8371;52.272;9.746;2022-10-20T03:42:47;6.20;73.40
16517;DHT22;8371;52.272;9.746;2022-10-20T03:45:13;6.20;73.30
16517;DHT22;8371;52.272;9.746;2022-10-20T03:47:39;6.20;73.40
16517;DHT22;8371;52.272;9.746;2022-10-20T03:50:05;6.20;73.40
16517;DHT22;8371;52.272;9.746;2022-10-20T03:52:31;6.30;73.30
16517;DHT22;8371;52.272;9.746;2022-10-20T03:54:57;6.30;73.30
16517;DHT22;8371;52.272;9.746;2022-10-20T03:57:22;6.30;73.40
16517;DHT22;8371;52.272;9.746;2022-10-20T03:59:48;6.30;73.40
16517;DHT22;8371;52.272;9.746;2022-10-20T04:02:21;6.40;73.50
16517;DHT22;8371;52.272;9.746;2022-10-20T04:04:43;6.40;73.40
16517;DHT22;8371;52.272;9.746;2022-10-20T04:07:09;6.40;73.30
16517;DHT22;8371;52.272;9.746;2022-10-20T04:09:34;6.40;73.30
16517;DHT22;8371;52.272;9.746;2022-10-20T04:12:00;6.40;73.30
16517;DHT22;8371;52.272;9.746;2022-10-20T04:14:26;6.40;73.40
16517;DHT22;8371;52.272;9.746;2022-10-20T04:16:51;6.40;73.20
16517;DHT22;8371;52.272;9.746;2022-10-20T04:19:17;6.40;73.20
16517;DHT22;8371;52.272;9.746;2022-10-20T04:21:43;6.40;73.30
16517;DHT22;8371;52.272;9.746;2022-10-20T04:24:08;6.50;73.50
16517;DHT22;8371;52.272;9.746;2022-10-20T04:26:34;6.50;73.50
16517;DHT22;8371;52.272;9.746;2022-10-20T04:29:00;6.50;73.40
16517;DHT22;8371;52.272;9.746;2022-10-20T04:31:27;6.50;73.50
16517;DHT22;8371;52.272;9.746;2022-10-20T04:33:52;6.60;73.60
16517;DHT22;8371;52.272;9.746;2022-10-20T04:36:18;6.60;73.60
16517;DHT22;8371;52.272;9.746;2022-10-20T04:38:44;6.60;73.60
16517;DHT22;8371;52.272;9.746;2022-10-20T04:41:10;6.60;73.60
16517;DHT22;8371;52.272;9.746;2022-10-20T04:43:36;6.60;73.60
16517;DHT22;8371;52.272;9.746;2022-10-20T04:46:05;6.70;73.60
16517;DHT22;8371;52.272;9.746;2022-10-20T04:48:31;6.70;73.60
16517;DHT22;8371;52.272;9.746;2022-10-20T04:51:06;6.70;73.40
16517;DHT22;8371;52.272;9.746;2022-10-20T04:53:32;6.70;73.30
16517;DHT22;8371;52.272;9.746;2022-10-20T04:55:58;6.70;73.30
16517;DHT22;8371;52.272;9.746;2022-10-20T04:58:25;6.70;73.20
16517;DHT22;8371;52.272;9.746;2022-10-20T05:00:51;6.80;73.20
16517;DHT22;8371;52.272;9.746;2022-10-20T05:03:16;6.70;73.20
16517;DHT22;8371;52.272;9.746;2022-10-20T05:05:46;6.70;73.10
16517;DHT22;8371;52.272;9.746;2022-10-20T05:08:12;6.80;73.20
16517;DHT22;8371;52.272;9.746;2022-10-20T05:10:38;6.70;73.00
16517;DHT22;8371;52.272;9.746;2022-10-20T05:13:04;6.70;73.10
16517;DHT22;8371;52.272;9.746;2022-10-20T05:15:30;6.70;73.00
16517;DHT22;8371;52.272;9.746;2022-10-20T05:17:56;6.70;73.00
16517;DHT22;8371;52.272;9.746;2022-10-20T05:20:42;6.70;73.30
16517;DHT22;8371;52.272;9.746;2022-10-20T05:23:08;6.70;73.20
16517;DHT22;8371;52.272;9.746;2022-10-20T05:25:36;6.70;73.20
16517;DHT22;8371;52.272;9.746;2022-10-20T05:28:02;6.70;73.20
16517;DHT22;8371;52.272;9.746;2022-10-20T05:30:28;6.70;73.20
16517;DHT22;8371;52.272;9.746;2022-10-20T05:32:53;6.70;73.10
16517;DHT22;8371;52.272;9.746;2022-10-20T05:35:19;6.70;73.00
16517;DHT22;8371;52.272;9.746;2022-10-20T05:37:44;6.70;73.10
16517;DHT22;8371;52.272;9.746;2022-10-20T05:40:11;6.70;73.30
16517;DHT22;8371;52.272;9.746;2022-10-20T05:42:37;6.70;73.10
16517;DHT22;8371;52.272;9.746;2022-10-20T05:45:04;6.70;73.20
16517;DHT22;8371;52.272;9.746;2022-10-20T05:47:29;6.70;73.30
16517;DHT22;8371;52.272;9.746;2022-10-20T05:49:55;6.70;73.20
16517;DHT22;8371;52.272;9.746;2022-10-20T05:52:21;6.70;73.20
16517;DHT22;8371;52.272;9.746;2022-10-20T05:54:46;6.70;73.20
16517;DHT22;8371;52.272;9.746;2022-10-20T05:57:12;6.70;73.20
16517;DHT22;8371;52.272;9.746;2022-10-20T05:59:38;6.70;73.30
16517;DHT22;8371;52.272;9.746;2022-10-20T06:02:04;6.70;73.40
16517;DHT22;8371;52.272;9.746;2022-10-20T06:04:30;6.70;73.30
16517;DHT22;8371;52.272;9.746;2022-10-20T06:06:56;6.70;73.30
16517;DHT22;8371;52.272;9.746;2022-10-20T06:09:22;6.70;73.60
16517;DHT22;8371;52.272;9.746;2022-10-20T06:11:49;6.70;73.60
16517;DHT22;8371;52.272;9.746;2022-10-20T06:14:16;6.70;73.60
16517;DHT22;8371;52.272;9.746;2022-10-20T06:16:43;6.80;73.90
16517;DHT22;8371;52.272;9.746;2022-10-20T06:19:09;6.80;74.10
16517;DHT22;8371;52.272;9.746;2022-10-20T06:21:36;6.80;74.00
16517;DHT22;8371;52.272;9.746;2022-10-20T06:24:04;6.90;74.10
16517;DHT22;8371;52.272;9.746;2022-10-20T06:26:31;6.90;74.00
16517;DHT22;8371;52.272;9.746;2022-10-20T06:28:58;7.00;74.20
16517;DHT22;8371;52.272;9.746;2022-10-20T06:31:27;7.00;74.10
16517;DHT22;8371;52.272;9.746;2022-10-20T06:33:53;7.10;74.20
16517;DHT22;8371;52.272;9.746;2022-10-20T06:36:20;7.10;74.10
16517;DHT22;8371;52.272;9.746;2022-10-20T06:38:46;7.10;74.20
16517;DHT22;8371;52.272;9.746;2022-10-20T06:41:15;7.20;74.20
16517;DHT22;8371;52.272;9.746;2022-10-20T06:43:42;7.20;74.10
16517;DHT22;8371;52.272;9.746;2022-10-20T06:46:14;7.20;73.90
16517;DHT22;8371;52.272;9.746;2022-10-20T06:48:40;7.30;74.00
16517;DHT22;8371;52.272;9.746;2022-10-20T06:51:09;7.40;74.20
16517;DHT22;8371;52.272;9.746;2022-10-20T06:53:35;7.50;74.10
16517;DHT22;8371;52.272;9.746;2022-10-20T06:56:06;7.50;74.10
16517;DHT22;8371;52.272;9.746;2022-10-20T06:58:34;7.60;74.10
16517;DHT22;8371;52.272;9.746;2022-10-20T07:01:12;7.60;73.80
16517;DHT22;8371;52.272;9.746;2022-10-20T07:03:39;7.70;73.90
16517;DHT22;8371;52.272;9.746;2022-10-20T07:06:07;7.70;74.00
16517;DHT22;8371;52.272;9.746;2022-10-20T07:08:35;7.80;73.80
16517;DHT22;8371;52.272;9.746;2022-10-20T07:11:06;7.80;73.70
16517;DHT22;8371;52.272;9.746;2022-10-20T07:13:33;7.90;73.80
16517;DHT22;8371;52.272;9.746;2022-10-20T07:15:59;7.90;73.70
16517;DHT22;8371;52.272;9.746;2022-10-20T07:18:27;7.90;73.80
16517;DHT22;8371;52.272;9.746;2022-10-20T07:20:58;8.00;74.60
16517;DHT22;8371;52.272;9.746;2022-10-20T07:23:27;8.00;73.70
16517;DHT22;8371;52.272;9.746;2022-10-20T07:26:05;8.10;73.90
16517;DHT22;8371;52.272;9.746;2022-10-20T07:28:31;8.20;73.80
16517;DHT22;8371;52.272;9.746;2022-10-20T07:31:06;8.20;73.90
16517;DHT22;8371;52.272;9.746;2022-10-20T07:33:32;8.20;73.90
16517;DHT22;8371;52.272;9.746;2022-10-20T07:35:59;8.30;74.00
16517;DHT22;8371;52.272;9.746;2022-10-20T07:38:25;8.40;74.00
16517;DHT22;8371;52.272;9.746;2022-10-20T07:40:51;8.40;74.20
16517;DHT22;8371;52.272;9.746;2022-10-20T07:43:17;8.50;73.90
16517;DHT22;8371;52.272;9.746;2022-10-20T07:45:43;8.50;74.10
16517;DHT22;8371;52.272;9.746;2022-10-20T07:48:08;8.70;74.20
16517;DHT22;8371;52.272;9.746;2022-10-20T07:50:35;8.70;74.10
16517;DHT22;8371;52.272;9.746;2022-10-20T07:53:02;8.80;74.20
16517;DHT22;8371;52.272;9.746;2022-10-20T07:55:28;8.90;74.10
16517;DHT22;8371;52.272;9.746;2022-10-20T07:57:54;9.00;74.10
16517;DHT22;8371;52.272;9.746;2022-10-20T08:00:19;9.00;74.10
16517;DHT22;8371;52.272;9.746;2022-10-20T08:02:45;9.10;73.90
16517;DHT22;8371;52.272;9.746;2022-10-20T08:05:11;9.20;73.90
16517;DHT22;8371;52.272;9.746;2022-10-20T08:07:38;9.30;73.90
16517;DHT22;8371;52.272;9.746;2022-10-20T08:10:05;9.40;74.00
16517;DHT22;8371;52.272;9.746;2022-10-20T08:12:31;9.50;74.00
16517;DHT22;8371;52.272;9.746;2022-10-20T08:14:56;9.50;73.80
16517;DHT22;8371;52.272;9.746;2022-10-20T08:17:22;9.60;74.00
16517;DHT22;8371;52.272;9.746;2022-10-20T08:19:48;9.70;73.70
16517;DHT22;8371;52.272;9.746;2022-10-20T08:22:14;9.80;73.80
16517;DHT22;8371;52.272;9.746;2022-10-20T08:24:40;9.90;73.80
16517;DHT22;8371;52.272;9.746;2022-10-20T08:27:06;10.00;74.00
16517;DHT22;8371;52.272;9.746;2022-10-20T08:29:32;10.10;73.50
16517;DHT22;8371;52.272;9.746;2022-10-20T08:31:57;10.20;73.30
16517;DHT22;8371;52.272;9.746;2022-10-20T08:34:23;10.30;73.20
16517;DHT22;8371;52.272;9.746;2022-10-20T08:36:49;10.40;73.10
16517;DHT22;8371;52.272;9.746;2022-10-20T08:39:15;10.40;73.00
16517;DHT22;8371;52.272;9.746;2022-10-20T08:41:43;10.50;72.80
16517;DHT22;8371;52.272;9.746;2022-10-20T08:44:14;10.60;73.70
16517;DHT22;8371;52.272;9.746;2022-10-20T08:46:39;10.60;72.90
16517;DHT22;8371;52.272;9.746;2022-10-20T08:49:10;10.60;72.70
16517;DHT22;8371;52.272;9.746;2022-10-20T08:51:35;10.70;72.90
16517;DHT22;8371;52.272;9.746;2022-10-20T08:54:04;10.70;72.70
16517;DHT22;8371;52.272;9.746;2022-10-20T08:56:32;10.80;72.80
16517;DHT22;8371;52.272;9.746;2022-10-20T08:58:59;10.90;72.80
16517;DHT22;8371;52.272;9.746;2022-10-20T09:01:28;11.00;72.70
16517;DHT22;8371;52.272;9.746;2022-10-20T09:03:59;11.00;72.70
16517;DHT22;8371;52.272;9.746;2022-10-20T09:06:26;11.10;72.60
16517;DHT22;8371;52.272;9.746;2022-10-20T09:08:53;11.20;72.60
16517;DHT22;8371;52.272;9.746;2022-10-20T09:11:23;11.30;72.90
16517;DHT22;8371;52.272;9.746;2022-10-20T09:13:50;11.30;72.60
16517;DHT22;8371;52.272;9.746;2022-10-20T09:16:23;11.40;72.70
16517;DHT22;8371;52.272;9.746;2022-10-20T09:18:56;11.50;72.70
16517;DHT22;8371;52.272;9.746;2022-10-20T09:21:22;11.50;72.50
16517;DHT22;8371;52.272;9.746;2022-10-20T09:23:51;11.70;72.50
16517;DHT22;8371;52.272;9.746;2022-10-20T09:26:30;11.70;72.40
16517;DHT22;8371;52.272;9.746;2022-10-20T09:29:02;11.80;72.40
16517;DHT22;8371;52.272;9.746;2022-10-20T09:31:22;11.90;72.50
16517;DHT22;8371;52.272;9.746;2022-10-20T09:33:48;12.00;72.30
16517;DHT22;8371;52.272;9.746;2022-10-20T09:36:17;12.10;72.20
16517;DHT22;8371;52.272;9.746;2022-10-20T09:38:47;12.20;72.00
16517;DHT22;8371;52.272;9.746;2022-10-20T09:43:49;12.50;71.90
16517;DHT22;8371;52.272;9.746;2022-10-20T09:46:19;12.60;71.90
16517;DHT22;8371;52.272;9.746;2022-10-20T09:48:47;12.70;71.70
16517;DHT22;8371;52.272;9.746;2022-10-20T09:51:25;12.80;71.60
16517;DHT22;8371;52.272;9.746;2022-10-20T09:58:58;13.10;71.20
16517;DHT22;8371;52.272;9.746;2022-10-20T10:01:24;13.20;71.00
16517;DHT22;8371;52.272;9.746;2022-10-20T10:03:52;13.30;70.90
16517;DHT22;8371;52.272;9.746;2022-10-20T10:06:40;13.30;70.80
16517;DHT22;8371;52.272;9.746;2022-10-20T10:09:32;13.50;70.80
16517;DHT22;8371;52.272;9.746;2022-10-20T10:12:04;13.60;70.60
16517;DHT22;8371;52.272;9.746;2022-10-20T10:14:32;13.70;70.60
16517;DHT22;8371;52.272;9.746;2022-10-20T10:17:00;13.80;70.60
16517;DHT22;8371;52.272;9.746;2022-10-20T10:19:28;13.90;70.50
16517;DHT22;8371;52.272;9.746;2022-10-20T10:22:00;14.00;70.60
16517;DHT22;8371;52.272;9.746;2022-10-20T10:24:41;14.20;70.70
16517;DHT22;8371;52.272;9.746;2022-10-20T10:27:31;14.30;70.30
16517;DHT22;8371;52.272;9.746;2022-10-20T10:32:53;14.60;70.00
16517;DHT22;8371;52.272;9.746;2022-10-20T10:35:37;14.70;69.80
16517;DHT22;8371;52.272;9.746;2022-10-20T10:38:00;14.80;69.50
16517;DHT22;8371;52.272;9.746;2022-10-20T10:40:44;14.90;69.20
16517;DHT22;8371;52.272;9.746;2022-10-20T10:45:43;15.00;68.80
16517;DHT22;8371;52.272;9.746;2022-10-20T10:51:07;15.10;68.90
16517;DHT22;8371;52.272;9.746;2022-10-20T10:53:44;15.20;68.80
16517;DHT22;8371;52.272;9.746;2022-10-20T11:01:40;15.30;69.50
16517;DHT22;8371;52.272;9.746;2022-10-20T11:07:12;15.50;68.80
16517;DHT22;8371;52.272;9.746;2022-10-20T11:15:19;15.90;67.60
16517;DHT22;8371;52.272;9.746;2022-10-20T11:17:47;15.90;67.20
16517;DHT22;8371;52.272;9.746;2022-10-20T11:20:26;15.90;67.00
16517;DHT22;8371;52.272;9.746;2022-10-20T11:23:03;15.90;67.20
16517;DHT22;8371;52.272;9.746;2022-10-20T11:25:39;16.00;67.50
16517;DHT22;8371;52.272;9.746;2022-10-20T11:28:15;16.10;67.00
16517;DHT22;8371;52.272;9.746;2022-10-20T11:30:34;16.20;67.20
16517;DHT22;8371;52.272;9.746;2022-10-20T11:33:15;16.30;66.80
16517;DHT22;8371;52.272;9.746;2022-10-20T11:41:10;16.50;67.00
16517;DHT22;8371;52.272;9.746;2022-10-20T11:44:03;16.70;66.70
16517;DHT22;8371;52.272;9.746;2022-10-20T11:46:39;16.80;66.20
16517;DHT22;8371;52.272;9.746;2022-10-20T11:49:05;17.00;66.30
16517;DHT22;8371;52.272;9.746;2022-10-20T11:51:38;17.10;65.90
16517;DHT22;8371;52.272;9.746;2022-10-20T12:03:10;17.30;64.50
16517;DHT22;8371;52.272;9.746;2022-10-20T12:09:03;17.30;64.40
16517;DHT22;8371;52.272;9.746;2022-10-20T12:14:22;17.30;63.90
16517;DHT22;8371;52.272;9.746;2022-10-20T12:19:31;17.30;64.10
16517;DHT22;8371;52.272;9.746;2022-10-20T12:22:00;17.30;64.10
16517;DHT22;8371;52.272;9.746;2022-10-20T12:25:11;17.30;64.50
16517;DHT22;8371;52.272;9.746;2022-10-20T12:29:49;17.40;64.40
16517;DHT22;8371;52.272;9.746;2022-10-20T12:37:40;17.40;64.70
16517;DHT22;8371;52.272;9.746;2022-10-20T12:42:48;17.50;64.80
16517;DHT22;8371;52.272;9.746;2022-10-20T12:47:49;17.50;64.40
16517;DHT22;8371;52.272;9.746;2022-10-20T12:50:36;17.60;64.40
16517;DHT22;8371;52.272;9.746;2022-10-20T12:53:23;17.60;64.40
16517;DHT22;8371;52.272;9.746;2022-10-20T12:55:57;17.70;64.60
16517;DHT22;8371;52.272;9.746;2022-10-20T12:58:26;17.70;64.60
16517;DHT22;8371;52.272;9.746;2022-10-20T13:14:24;18.20;64.40
16517;DHT22;8371;52.272;9.746;2022-10-20T13:19:44;18.30;63.80
16517;DHT22;8371;52.272;9.746;2022-10-20T13:22:39;18.40;63.90
16517;DHT22;8371;52.272;9.746;2022-10-20T13:25:13;18.40;63.80
16517;DHT22;8371;52.272;9.746;2022-10-20T13:27:40;18.50;63.60
16517;DHT22;8371;52.272;9.746;2022-10-20T13:30:18;18.50;63.50
16517;DHT22;8371;52.272;9.746;2022-10-20T13:33:02;18.50;63.50
16517;DHT22;8371;52.272;9.746;2022-10-20T13:35:31;18.50;63.40
16517;DHT22;8371;52.272;9.746;2022-10-20T13:38:03;18.50;63.10
16517;DHT22;8371;52.272;9.746;2022-10-20T13:46:08;18.50;63.30
16517;DHT22;8371;52.272;9.746;2022-10-20T13:48:55;18.60;63.30
16517;DHT22;8371;52.272;9.746;2022-10-20T13:51:25;18.60;63.20
16517;DHT22;8371;52.272;9.746;2022-10-20T13:53:58;18.60;63.10
16517;DHT22;8371;52.272;9.746;2022-10-20T13:56:34;18.60;63.10
16517;DHT22;8371;52.272;9.746;2022-10-20T13:59:15;18.60;62.90
16517;DHT22;8371;52.272;9.746;2022-10-20T14:01:35;18.60;62.70
16517;DHT22;8371;52.272;9.746;2022-10-20T14:04:00;18.60;62.90
16517;DHT22;8371;52.272;9.746;2022-10-20T14:08:58;18.60;62.80
16517;DHT22;8371;52.272;9.746;2022-10-20T14:11:29;18.60;62.70
16517;DHT22;8371;52.272;9.746;2022-10-20T14:13:57;18.60;62.60
16517;DHT22;8371;52.272;9.746;2022-10-20T14:16:25;18.60;62.40
16517;DHT22;8371;52.272;9.746;2022-10-20T14:19:03;18.60;62.20
16517;DHT22;8371;52.272;9.746;2022-10-20T14:21:39;18.50;62.30
16517;DHT22;8371;52.272;9.746;2022-10-20T14:24:05;18.40;62.20
16517;DHT22;8371;52.272;9.746;2022-10-20T14:26:32;18.40;62.30
16517;DHT22;8371;52.272;9.746;2022-10-20T14:28:59;18.40;62.40
16517;DHT22;8371;52.272;9.746;2022-10-20T14:31:25;18.30;62.50
16517;DHT22;8371;52.272;9.746;2022-10-20T14:33:52;18.40;62.60
16517;DHT22;8371;52.272;9.746;2022-10-20T14:36:23;18.40;62.60
16517;DHT22;8371;52.272;9.746;2022-10-20T14:38:52;18.30;62.60
16517;DHT22;8371;52.272;9.746;2022-10-20T14:41:33;18.30;62.60
16517;DHT22;8371;52.272;9.746;2022-10-20T14:44:01;18.30;62.70
16517;DHT22;8371;52.272;9.746;2022-10-20T14:46:30;18.30;62.70
16517;DHT22;8371;52.272;9.746;2022-10-20T14:48:58;18.30;62.70
16517;DHT22;8371;52.272;9.746;2022-10-20T14:51:39;18.30;62.50
16517;DHT22;8371;52.272;9.746;2022-10-20T14:56:59;18.20;62.50
16517;DHT22;8371;52.272;9.746;2022-10-20T14:59:31;18.20;62.50
16517;DHT22;8371;52.272;9.746;2022-10-20T15:02:03;18.20;62.30
16517;DHT22;8371;52.272;9.746;2022-10-20T15:04:38;18.10;62.30
16517;DHT22;8371;52.272;9.746;2022-10-20T15:07:17;18.10;62.00
16517;DHT22;8371;52.272;9.746;2022-10-20T15:09:46;18.10;61.90
16517;DHT22;8371;52.272;9.746;2022-10-20T15:12:21;18.00;61.80
16517;DHT22;8371;52.272;9.746;2022-10-20T15:14:50;18.00;61.80
16517;DHT22;8371;52.272;9.746;2022-10-20T15:17:41;18.00;61.80
16517;DHT22;8371;52.272;9.746;2022-10-20T15:23:00;17.80;61.80
16517;DHT22;8371;52.272;9.746;2022-10-20T15:25:29;17.80;61.90
16517;DHT22;8371;52.272;9.746;2022-10-20T15:27:56;17.70;61.90
16517;DHT22;8371;52.272;9.746;2022-10-20T15:30:23;17.70;61.80
16517;DHT22;8371;52.272;9.746;2022-10-20T15:32:49;17.70;61.90
16517;DHT22;8371;52.272;9.746;2022-10-20T15:35:18;17.60;61.70
16517;DHT22;8371;52.272;9.746;2022-10-20T15:37:56;17.60;61.80
16517;DHT22;8371;52.272;9.746;2022-10-20T15:40:22;17.50;61.70
16517;DHT22;8371;52.272;9.746;2022-10-20T15:42:47;17.50;61.80
16517;DHT22;8371;52.272;9.746;2022-10-20T15:45:16;17.40;61.80
16517;DHT22;8371;52.272;9.746;2022-10-20T15:47:42;17.40;61.80
16517;DHT22;8371;52.272;9.746;2022-10-20T15:50:09;17.40;61.80
16517;DHT22;8371;52.272;9.746;2022-10-20T15:52:34;17.30;61.80
16517;DHT22;8371;52.272;9.746;2022-10-20T15:55:27;17.20;61.80
16517;DHT22;8371;52.272;9.746;2022-10-20T15:57:53;17.20;61.70
16517;DHT22;8371;52.272;9.746;2022-10-20T16:00:21;17.20;61.90
16517;DHT22;8371;52.272;9.746;2022-10-20T16:02:48;17.10;62.00
16517;DHT22;8371;52.272;9.746;2022-10-20T16:05:16;17.10;62.00
16517;DHT22;8371;52.272;9.746;2022-10-20T16:07:42;17.00;62.00
16517;DHT22;8371;52.272;9.746;2022-10-20T16:10:09;17.00;62.20
16517;DHT22;8371;52.272;9.746;2022-10-20T16:12:36;17.00;62.20
16517;DHT22;8371;52.272;9.746;2022-10-20T16:15:03;16.90;62.20
16517;DHT22;8371;52.272;9.746;2022-10-20T16:17:29;16.90;62.20
16517;DHT22;8371;52.272;9.746;2022-10-20T16:19:54;16.80;62.20
16517;DHT22;8371;52.272;9.746;2022-10-20T16:22:20;16.80;62.30
16517;DHT22;8371;52.272;9.746;2022-10-20T16:24:46;16.80;62.40
16517;DHT22;8371;52.272;9.746;2022-10-20T16:27:13;16.70;62.40
16517;DHT22;8371;52.272;9.746;2022-10-20T16:29:39;16.70;62.40
16517;DHT22;8371;52.272;9.746;2022-10-20T16:32:05;16.70;62.50
16517;DHT22;8371;52.272;9.746;2022-10-20T16:34:31;16.70;62.50
16517;DHT22;8371;52.272;9.746;2022-10-20T16:36:56;16.60;62.50
16517;DHT22;8371;52.272;9.746;2022-10-20T16:39:22;16.60;62.70
16517;DHT22;8371;52.272;9.746;2022-10-20T16:41:48;16.60;62.80
16517;DHT22;8371;52.272;9.746;2022-10-20T16:44:13;16.50;62.90
16517;DHT22;8371;52.272;9.746;2022-10-20T16:46:39;16.50;63.10
16517;DHT22;8371;52.272;9.746;2022-10-20T16:49:05;16.50;63.20
16517;DHT22;8371;52.272;9.746;2022-10-20T16:51:32;16.40;63.30
16517;DHT22;8371;52.272;9.746;2022-10-20T16:53:58;16.40;63.40
16517;DHT22;8371;52.272;9.746;2022-10-20T16:56:24;16.30;63.30
16517;DHT22;8371;52.272;9.746;2022-10-20T16:58:50;16.30;63.50
16517;DHT22;8371;52.272;9.746;2022-10-20T17:01:18;16.30;63.70
16517;DHT22;8371;52.272;9.746;2022-10-20T17:03:50;16.20;63.80
16517;DHT22;8371;52.272;9.746;2022-10-20T17:06:18;16.20;64.00
16517;DHT22;8371;52.272;9.746;2022-10-20T17:08:44;16.10;64.10
16517;DHT22;8371;52.272;9.746;2022-10-20T17:11:13;16.10;64.20
16517;DHT22;8371;52.272;9.746;2022-10-20T17:13:40;16.00;64.30
16517;DHT22;8371;52.272;9.746;2022-10-20T17:16:11;16.00;64.50
16517;DHT22;8371;52.272;9.746;2022-10-20T17:18:37;15.90;64.60
16517;DHT22;8371;52.272;9.746;2022-10-20T17:21:04;15.90;64.70
16517;DHT22;8371;52.272;9.746;2022-10-20T17:23:32;15.90;65.00
16517;DHT22;8371;52.272;9.746;2022-10-20T17:26:00;15.80;65.20
16517;DHT22;8371;52.272;9.746;2022-10-20T17:28:27;15.80;65.20
16517;DHT22;8371;52.272;9.746;2022-10-20T17:30:54;15.70;65.30
16517;DHT22;8371;52.272;9.746;2022-10-20T17:33:25;15.70;65.40
16517;DHT22;8371;52.272;9.746;2022-10-20T17:35:52;15.70;65.60
16517;DHT22;8371;52.272;9.746;2022-10-20T17:38:20;15.60;65.60
16517;DHT22;8371;52.272;9.746;2022-10-20T17:40:46;15.60;65.80
16517;DHT22;8371;52.272;9.746;2022-10-20T17:43:12;15.60;66.00
16517;DHT22;8371;52.272;9.746;2022-10-20T17:45:38;15.60;66.20
16517;DHT22;8371;52.272;9.746;2022-10-20T17:48:04;15.50;66.20
16517;DHT22;8371;52.272;9.746;2022-10-20T17:50:30;15.50;66.40
16517;DHT22;8371;52.272;9.746;2022-10-20T17:52:58;15.50;66.50
16517;DHT22;8371;52.272;9.746;2022-10-20T17:55:26;15.40;66.60
16517;DHT22;8371;52.272;9.746;2022-10-20T17:57:51;15.40;66.70
16517;DHT22;8371;52.272;9.746;2022-10-20T18:00:17;15.40;66.90